sensor_id;sensor_type;location;lat;lon;timestamp;temperature;humidity
48535;DHT22;34323;52.022;5.686;2022-11-15T00:00:49;11.70;99.90
48535;DHT22;34323;52.022;5.686;2022-11-15T00:03:16;11.80;99.90
48535;DHT22;34323;52.022;5.686;2022-11-15T00:05:42;12.00;99.90
48535;DHT22;34323;52.022;5.686;2022-11-15T00:08:08;12.20;99.90
48535;DHT22;34323;52.022;5.686;2022-11-15T00:10:34;12.40;99.90
48535;DHT22;34323;52.022;5.686;2022-11-15T00:13:03;12.30;99.90
48535;DHT22;34323;52.022;5.686;2022-11-15T00:15:29;12.30;99.90
48535;DHT22;34323;52.022;5.686;2022-11-15T00:17:55;12.30;99.90
48535;DHT22;34323;52.022;5.686;2022-11-15T00:20:20;12.40;99.90
48535;DHT22;34323;52.022;5.686;2022-11-15T00:22:46;12.50;99.90
48535;DHT22;34323;52.022;5.686;2022-11-15T00:25:11;12.50;99.90
48535;DHT22;34323;52.022;5.686;2022-11-15T00:27:37;12.60;99.90
48535;DHT22;34323;52.022;5.686;2022-11-15T00:30:03;12.70;99.90
48535;DHT22;34323;52.022;5.686;2022-11-15T00:32:32;12.90;99.90
48535;DHT22;34323;52.022;5.686;2022-11-15T00:34:57;12.90;99.90
48535;DHT22;34323;52.022;5.686;2022-11-15T00:37:23;13.00;99.90
48535;DHT22;34323;52.022;5.686;2022-11-15T00:39:48;13.00;99.90
48535;DHT22;34323;52.022;5.686;2022-11-15T00:42:14;13.00;99.90
48535;DHT22;34323;52.022;5.686;2022-11-15T00:44:40;12.70;99.90
48535;DHT22;34323;52.022;5.686;2022-11-15T00:47:05;12.40;99.90
48535;DHT22;34323;52.022;5.686;2022-11-15T00:49:31;12.40;99.90
48535;DHT22;34323;52.022;5.686;2022-11-15T00:51:56;12.40;99.90
48535;DHT22;34323;52.022;5.686;2022-11-15T00:54:22;12.40;99.90
48535;DHT22;34323;52.022;5.686;2022-11-15T00:56:47;12.50;99.90
48535;DHT22;34323;52.022;5.686;2022-11-15T00:59:13;12.60;99.90
48535;DHT22;34323;52.022;5.686;2022-11-15T01:01:38;12.70;99.90
48535;DHT22;34323;52.022;5.686;2022-11-15T01:04:04;12.80;99.90
48535;DHT22;34323;52.022;5.686;2022-11-15T01:06:29;12.90;99.90
48535;DHT22;34323;52.022;5.686;2022-11-15T01:08:55;12.80;99.90
48535;DHT22;34323;52.022;5.686;2022-11-15T01:11:21;13.00;99.90
48535;DHT22;34323;52.022;5.686;2022-11-15T01:13:46;13.00;99.90
48535;DHT22;34323;52.022;5.686;2022-11-15T01:16:17;13.20;99.90
48535;DHT22;34323;52.022;5.686;2022-11-15T01:18:44;13.60;99.90
48535;DHT22;34323;52.022;5.686;2022-11-15T01:21:15;13.70;99.90
48535;DHT22;34323;52.022;5.686;2022-11-15T01:23:41;13.70;99.90
48535;DHT22;34323;52.022;5.686;2022-11-15T01:26:09;13.80;99.90
48535;DHT22;34323;52.022;5.686;2022-11-15T01:28:37;13.80;99.90
48535;DHT22;34323;52.022;5.686;2022-11-15T01:31:05;13.60;99.90
48535;DHT22;34323;52.022;5.686;2022-11-15T01:33:30;13.70;99.90
48535;DHT22;34323;52.022;5.686;2022-11-15T01:35:56;13.60;99.90
48535;DHT22;34323;52.022;5.686;2022-11-15T01:38:22;13.60;99.90
48535;DHT22;34323;52.022;5.686;2022-11-15T01:40:48;13.70;99.90
48535;DHT22;34323;52.022;5.686;2022-11-15T01:43:32;13.70;99.90
48535;DHT22;34323;52.022;5.686;2022-11-15T01:48:46;13.70;99.90
48535;DHT22;34323;52.022;5.686;2022-11-15T01:51:14;13.60;99.90
48535;DHT22;34323;52.022;5.686;2022-11-15T01:53:42;13.60;99.90
48535;DHT22;34323;52.022;5.686;2022-11-15T01:56:24;13.70;99.90
48535;DHT22;34323;52.022;5.686;2022-11-15T01:58:51;13.70;99.90
48535;DHT22;34323;52.022;5.686;2022-11-15T02:01:17;13.80;99.90
48535;DHT22;34323;52.022;5.686;2022-11-15T02:03:54;13.90;99.90
48535;DHT22;34323;52.022;5.686;2022-11-15T02:06:22;14.00;99.90
48535;DHT22;34323;52.022;5.686;2022-11-15T02:08:48;14.10;99.90
48535;DHT22;34323;52.022;5.686;2022-11-15T02:11:14;14.20;99.90
48535;DHT22;34323;52.022;5.686;2022-11-15T02:13:41;14.30;99.90
48535;DHT22;34323;52.022;5.686;2022-11-15T02:25:14;14.40;99.90
48535;DHT22;34323;52.022;5.686;2022-11-15T02:36:49;14.40;99.90
48535;DHT22;34323;52.022;5.686;2022-11-15T02:39:34;14.50;99.90
48535;DHT22;34323;52.022;5.686;2022-11-15T02:42:04;14.40;99.90
48535;DHT22;34323;52.022;5.686;2022-11-15T02:44:52;14.40;99.90
48535;DHT22;34323;52.022;5.686;2022-11-15T02:47:20;14.50;99.90
48535;DHT22;34323;52.022;5.686;2022-11-15T02:49:48;14.60;99.90
48535;DHT22;34323;52.022;5.686;2022-11-15T02:52:20;14.60;99.90
48535;DHT22;34323;52.022;5.686;2022-11-15T02:54:57;14.60;99.90
48535;DHT22;34323;52.022;5.686;2022-11-15T03:00:13;14.60;99.90
48535;DHT22;34323;52.022;5.686;2022-11-15T03:06:19;14.60;99.90
48535;DHT22;34323;52.022;5.686;2022-11-15T03:11:21;14.70;99.90
48535;DHT22;34323;52.022;5.686;2022-11-15T03:13:56;14.60;99.90
48535;DHT22;34323;52.022;5.686;2022-11-15T03:19:26;15.00;99.90
48535;DHT22;34323;52.022;5.686;2022-11-15T03:21:55;14.80;99.90
48535;DHT22;34323;52.022;5.686;2022-11-15T03:24:24;14.90;99.90
48535;DHT22;34323;52.022;5.686;2022-11-15T03:26:52;15.10;99.90
48535;DHT22;34323;52.022;5.686;2022-11-15T03:29:26;15.10;99.90
48535;DHT22;34323;52.022;5.686;2022-11-15T03:32:36;15.20;99.90
48535;DHT22;34323;52.022;5.686;2022-11-15T03:35:01;15.30;99.90
48535;DHT22;34323;52.022;5.686;2022-11-15T03:40:21;15.20;99.90
48535;DHT22;34323;52.022;5.686;2022-11-15T03:45:48;15.10;99.90
48535;DHT22;34323;52.022;5.686;2022-11-15T03:48:20;15.00;99.90
48535;DHT22;34323;52.022;5.686;2022-11-15T03:50:47;14.60;99.90
48535;DHT22;34323;52.022;5.686;2022-11-15T03:53:13;14.30;99.90
48535;DHT22;34323;52.022;5.686;2022-11-15T03:55:39;14.30;99.90
48535;DHT22;34323;52.022;5.686;2022-11-15T03:58:05;14.30;99.90
48535;DHT22;34323;52.022;5.686;2022-11-15T04:00:31;14.20;99.90
48535;DHT22;34323;52.022;5.686;2022-11-15T04:02:56;14.20;99.90
48535;DHT22;34323;52.022;5.686;2022-11-15T04:05:22;14.40;99.90
48535;DHT22;34323;52.022;5.686;2022-11-15T04:07:48;14.50;99.90
48535;DHT22;34323;52.022;5.686;2022-11-15T04:10:13;14.60;99.90
48535;DHT22;34323;52.022;5.686;2022-11-15T04:12:41;14.60;99.90
48535;DHT22;34323;52.022;5.686;2022-11-15T04:15:13;14.50;99.90
48535;DHT22;34323;52.022;5.686;2022-11-15T04:17:43;14.40;99.90
48535;DHT22;34323;52.022;5.686;2022-11-15T04:20:20;14.50;99.90
48535;DHT22;34323;52.022;5.686;2022-11-15T04:23:08;14.60;99.90
48535;DHT22;34323;52.022;5.686;2022-11-15T04:25:55;14.80;99.90
48535;DHT22;34323;52.022;5.686;2022-11-15T04:28:21;15.10;99.90
48535;DHT22;34323;52.022;5.686;2022-11-15T04:30:47;15.20;99.90
48535;DHT22;34323;52.022;5.686;2022-11-15T04:33:13;15.50;99.90
48535;DHT22;34323;52.022;5.686;2022-11-15T04:35:39;15.70;99.90
48535;DHT22;34323;52.022;5.686;2022-11-15T04:38:06;15.60;99.90
48535;DHT22;34323;52.022;5.686;2022-11-15T04:40:33;15.50;99.90
48535;DHT22;34323;52.022;5.686;2022-11-15T04:42:59;15.40;99.90
48535;DHT22;34323;52.022;5.686;2022-11-15T04:45:24;15.40;99.90
48535;DHT22;34323;52.022;5.686;2022-11-15T04:47:50;15.50;99.90
48535;DHT22;34323;52.022;5.686;2022-11-15T04:50:15;15.40;99.90
48535;DHT22;34323;52.022;5.686;2022-11-15T04:52:51;15.20;99.90
48535;DHT22;34323;52.022;5.686;2022-11-15T04:55:17;15.10;99.90
48535;DHT22;34323;52.022;5.686;2022-11-15T04:57:43;15.10;99.90
48535;DHT22;34323;52.022;5.686;2022-11-15T05:00:12;15.20;99.90
48535;DHT22;34323;52.022;5.686;2022-11-15T05:02:38;15.40;99.90
48535;DHT22;34323;52.022;5.686;2022-11-15T05:05:23;15.30;99.90
48535;DHT22;34323;52.022;5.686;2022-11-15T05:07:48;15.30;99.90
48535;DHT22;34323;52.022;5.686;2022-11-15T05:10:14;15.20;99.90
48535;DHT22;34323;52.022;5.686;2022-11-15T05:12:39;15.30;99.90
48535;DHT22;34323;52.022;5.686;2022-11-15T05:15:05;15.40;99.90
48535;DHT22;34323;52.022;5.686;2022-11-15T05:17:31;15.60;99.90
48535;DHT22;34323;52.022;5.686;2022-11-15T05:19:57;15.50;99.90
48535;DHT22;34323;52.022;5.686;2022-11-15T05:22:22;15.50;99.90
48535;DHT22;34323;52.022;5.686;2022-11-15T05:24:48;15.30;99.90
48535;DHT22;34323;52.022;5.686;2022-11-15T05:27:14;15.40;99.90
48535;DHT22;34323;52.022;5.686;2022-11-15T05:29:39;15.50;99.90
48535;DHT22;34323;52.022;5.686;2022-11-15T05:32:06;15.40;99.90
48535;DHT22;34323;52.022;5.686;2022-11-15T05:34:33;15.50;99.90
48535;DHT22;34323;52.022;5.686;2022-11-15T05:36:59;15.50;99.90
48535;DHT22;34323;52.022;5.686;2022-11-15T05:39:24;15.40;99.90
48535;DHT22;34323;52.022;5.686;2022-11-15T05:42:12;15.30;99.90
48535;DHT22;34323;52.022;5.686;2022-11-15T05:44:40;15.40;99.90
48535;DHT22;34323;52.022;5.686;2022-11-15T05:47:10;15.30;99.90
48535;DHT22;34323;52.022;5.686;2022-11-15T05:49:38;15.30;99.90
48535;DHT22;34323;52.022;5.686;2022-11-15T05:52:06;15.10;99.90
48535;DHT22;34323;52.022;5.686;2022-11-15T05:54:33;15.10;99.90
48535;DHT22;34323;52.022;5.686;2022-11-15T05:57:01;15.40;99.90
48535;DHT22;34323;52.022;5.686;2022-11-15T05:59:29;15.80;99.90
48535;DHT22;34323;52.022;5.686;2022-11-15T06:01:55;16.00;99.90
48535;DHT22;34323;52.022;5.686;2022-11-15T06:04:21;16.20;99.90
48535;DHT22;34323;52.022;5.686;2022-11-15T06:06:46;15.90;99.90
48535;DHT22;34323;52.022;5.686;2022-11-15T06:09:12;16.00;99.90
48535;DHT22;34323;52.022;5.686;2022-11-15T06:11:37;16.20;99.90
48535;DHT22;34323;52.022;5.686;2022-11-15T06:14:03;16.10;99.90
48535;DHT22;34323;52.022;5.686;2022-11-15T06:16:29;16.10;99.90
48535;DHT22;34323;52.022;5.686;2022-11-15T06:18:54;16.30;99.90
48535;DHT22;34323;52.022;5.686;2022-11-15T06:21:20;16.40;99.90
48535;DHT22;34323;52.022;5.686;2022-11-15T06:23:46;16.50;99.90
48535;DHT22;34323;52.022;5.686;2022-11-15T06:26:11;16.30;99.90
48535;DHT22;34323;52.022;5.686;2022-11-15T06:28:37;16.20;99.90
48535;DHT22;34323;52.022;5.686;2022-11-15T06:31:05;16.20;99.90
48535;DHT22;34323;52.022;5.686;2022-11-15T06:33:30;16.20;99.90
48535;DHT22;34323;52.022;5.686;2022-11-15T06:36:00;16.20;99.90
48535;DHT22;34323;52.022;5.686;2022-11-15T06:38:26;16.00;99.90
48535;DHT22;34323;52.022;5.686;2022-11-15T06:40:52;16.00;99.90
48535;DHT22;34323;52.022;5.686;2022-11-15T06:43:17;16.00;99.90
48535;DHT22;34323;52.022;5.686;2022-11-15T06:45:43;16.30;99.90
48535;DHT22;34323;52.022;5.686;2022-11-15T06:48:08;16.50;99.90
48535;DHT22;34323;52.022;5.686;2022-11-15T06:50:34;16.50;99.90
48535;DHT22;34323;52.022;5.686;2022-11-15T06:53:03;16.60;99.90
48535;DHT22;34323;52.022;5.686;2022-11-15T06:55:29;16.50;99.90
48535;DHT22;34323;52.022;5.686;2022-11-15T06:57:55;16.30;99.90
48535;DHT22;34323;52.022;5.686;2022-11-15T07:00:21;16.10;99.90
48535;DHT22;34323;52.022;5.686;2022-11-15T07:02:47;16.30;99.90
48535;DHT22;34323;52.022;5.686;2022-11-15T07:05:14;16.20;99.90
48535;DHT22;34323;52.022;5.686;2022-11-15T07:07:40;16.40;99.90
48535;DHT22;34323;52.022;5.686;2022-11-15T07:10:06;16.50;99.90
48535;DHT22;34323;52.022;5.686;2022-11-15T07:12:32;16.10;99.90
48535;DHT22;34323;52.022;5.686;2022-11-15T07:14:58;15.90;99.90
48535;DHT22;34323;52.022;5.686;2022-11-15T07:17:24;16.10;99.90
48535;DHT22;34323;52.022;5.686;2022-11-15T07:19:49;16.30;99.90
48535;DHT22;34323;52.022;5.686;2022-11-15T07:22:15;16.30;99.90
48535;DHT22;34323;52.022;5.686;2022-11-15T07:24:40;16.50;99.90
48535;DHT22;34323;52.022;5.686;2022-11-15T07:27:06;16.60;99.90
48535;DHT22;34323;52.022;5.686;2022-11-15T07:29:31;16.50;99.90
48535;DHT22;34323;52.022;5.686;2022-11-15T07:31:57;16.30;99.90
48535;DHT22;34323;52.022;5.686;2022-11-15T07:34:23;16.40;99.90
48535;DHT22;34323;52.022;5.686;2022-11-15T07:36:49;15.80;99.90
48535;DHT22;34323;52.022;5.686;2022-11-15T07:39:14;15.70;99.90
48535;DHT22;34323;52.022;5.686;2022-11-15T07:41:40;15.70;99.90
48535;DHT22;34323;52.022;5.686;2022-11-15T07:44:05;15.70;99.90
48535;DHT22;34323;52.022;5.686;2022-11-15T07:46:31;15.60;99.90
48535;DHT22;34323;52.022;5.686;2022-11-15T07:48:57;15.70;99.90
48535;DHT22;34323;52.022;5.686;2022-11-15T07:51:23;15.60;99.90
48535;DHT22;34323;52.022;5.686;2022-11-15T07:53:48;15.50;99.90
48535;DHT22;34323;52.022;5.686;2022-11-15T07:56:14;15.80;99.90
48535;DHT22;34323;52.022;5.686;2022-11-15T07:58:40;15.60;99.90
48535;DHT22;34323;52.022;5.686;2022-11-15T08:01:07;15.80;99.90
48535;DHT22;34323;52.022;5.686;2022-11-15T08:03:33;16.10;99.90
48535;DHT22;34323;52.022;5.686;2022-11-15T08:05:59;16.30;99.90
48535;DHT22;34323;52.022;5.686;2022-11-15T08:08:24;16.20;99.90
48535;DHT22;34323;52.022;5.686;2022-11-15T08:10:50;16.30;99.90
48535;DHT22;34323;52.022;5.686;2022-11-15T08:13:16;16.30;99.90
48535;DHT22;34323;52.022;5.686;2022-11-15T08:15:41;16.50;99.90
48535;DHT22;34323;52.022;5.686;2022-11-15T08:18:11;16.50;99.90
48535;DHT22;34323;52.022;5.686;2022-11-15T08:20:37;16.50;99.90
48535;DHT22;34323;52.022;5.686;2022-11-15T08:23:04;16.60;99.90
48535;DHT22;34323;52.022;5.686;2022-11-15T08:25:32;16.50;99.90
48535;DHT22;34323;52.022;5.686;2022-11-15T08:28:00;16.60;99.90
48535;DHT22;34323;52.022;5.686;2022-11-15T08:30:26;16.80;99.90
48535;DHT22;34323;52.022;5.686;2022-11-15T08:32:53;16.80;99.90
48535;DHT22;34323;52.022;5.686;2022-11-15T08:35:19;16.70;99.90
48535;DHT22;34323;52.022;5.686;2022-11-15T08:37:46;16.70;99.90
48535;DHT22;34323;52.022;5.686;2022-11-15T08:40:12;16.70;99.90
48535;DHT22;34323;52.022;5.686;2022-11-15T08:42:39;16.90;99.90
48535;DHT22;34323;52.022;5.686;2022-11-15T08:45:06;17.10;99.90
48535;DHT22;34323;52.022;5.686;2022-11-15T08:47:32;17.40;99.90
48535;DHT22;34323;52.022;5.686;2022-11-15T08:49:57;17.60;99.90
48535;DHT22;34323;52.022;5.686;2022-11-15T08:52:23;17.70;99.90
48535;DHT22;34323;52.022;5.686;2022-11-15T08:54:48;17.50;99.90
48535;DHT22;34323;52.022;5.686;2022-11-15T08:57:14;17.40;99.90
48535;DHT22;34323;52.022;5.686;2022-11-15T08:59:40;17.30;99.90
48535;DHT22;34323;52.022;5.686;2022-11-15T09:02:05;17.20;99.90
48535;DHT22;34323;52.022;5.686;2022-11-15T09:04:31;17.10;99.90
48535;DHT22;34323;52.022;5.686;2022-11-15T09:06:57;17.10;99.90
48535;DHT22;34323;52.022;5.686;2022-11-15T09:09:23;17.20;99.90
48535;DHT22;34323;52.022;5.686;2022-11-15T09:11:48;17.00;99.90
48535;DHT22;34323;52.022;5.686;2022-11-15T09:14:14;16.80;99.90
48535;DHT22;34323;52.022;5.686;2022-11-15T09:16:40;16.60;99.90
48535;DHT22;34323;52.022;5.686;2022-11-15T09:19:06;16.50;99.90
48535;DHT22;34323;52.022;5.686;2022-11-15T09:21:31;16.40;99.90
48535;DHT22;34323;52.022;5.686;2022-11-15T09:23:58;16.20;99.90
48535;DHT22;34323;52.022;5.686;2022-11-15T09:26:23;15.80;99.90
48535;DHT22;34323;52.022;5.686;2022-11-15T09:28:49;15.80;99.90
48535;DHT22;34323;52.022;5.686;2022-11-15T09:31:15;16.00;99.90
48535;DHT22;34323;52.022;5.686;2022-11-15T09:33:43;16.20;99.90
48535;DHT22;34323;52.022;5.686;2022-11-15T09:36:09;15.90;99.90
48535;DHT22;34323;52.022;5.686;2022-11-15T09:38:35;15.70;99.90
48535;DHT22;34323;52.022;5.686;2022-11-15T09:46:45;15.90;99.90
48535;DHT22;34323;52.022;5.686;2022-11-15T09:49:17;15.90;99.90
48535;DHT22;34323;52.022;5.686;2022-11-15T09:51:45;15.80;99.90
48535;DHT22;34323;52.022;5.686;2022-11-15T09:54:35;15.60;99.90
48535;DHT22;34323;52.022;5.686;2022-11-15T09:57:11;15.80;99.90
48535;DHT22;34323;52.022;5.686;2022-11-15T09:59:58;15.80;99.90
48535;DHT22;34323;52.022;5.686;2022-11-15T10:05:43;16.20;99.90
48535;DHT22;34323;52.022;5.686;2022-11-15T10:10:45;16.40;99.90
48535;DHT22;34323;52.022;5.686;2022-11-15T10:13:26;16.40;99.90
48535;DHT22;34323;52.022;5.686;2022-11-15T10:16:02;16.60;99.90
48535;DHT22;34323;52.022;5.686;2022-11-15T10:21:21;16.40;99.90
48535;DHT22;34323;52.022;5.686;2022-11-15T10:23:50;16.20;99.90
48535;DHT22;34323;52.022;5.686;2022-11-15T10:26:17;15.90;99.90
48535;DHT22;34323;52.022;5.686;2022-11-15T10:28:43;16.00;99.90
48535;DHT22;34323;52.022;5.686;2022-11-15T10:31:23;15.90;99.90
48535;DHT22;34323;52.022;5.686;2022-11-15T10:33:50;15.40;99.90
48535;DHT22;34323;52.022;5.686;2022-11-15T10:36:18;15.30;99.90
48535;DHT22;34323;52.022;5.686;2022-11-15T10:41:13;15.50;99.90
48535;DHT22;34323;52.022;5.686;2022-11-15T10:43:39;15.50;99.90
48535;DHT22;34323;52.022;5.686;2022-11-15T10:46:22;15.50;99.90
48535;DHT22;34323;52.022;5.686;2022-11-15T10:48:49;15.40;99.90
48535;DHT22;34323;52.022;5.686;2022-11-15T10:51:34;15.30;99.90
48535;DHT22;34323;52.022;5.686;2022-11-15T10:54:09;15.60;99.90
48535;DHT22;34323;52.022;5.686;2022-11-15T10:56:36;16.00;99.90
48535;DHT22;34323;52.022;5.686;2022-11-15T10:59:01;16.50;99.90
48535;DHT22;34323;52.022;5.686;2022-11-15T11:01:28;16.60;99.90
48535;DHT22;34323;52.022;5.686;2022-11-15T11:04:08;16.80;99.90
48535;DHT22;34323;52.022;5.686;2022-11-15T11:07:08;16.40;99.90
48535;DHT22;34323;52.022;5.686;2022-11-15T11:09:45;16.50;99.90
48535;DHT22;34323;52.022;5.686;2022-11-15T11:12:11;16.30;99.90
48535;DHT22;34323;52.022;5.686;2022-11-15T11:14:38;16.70;99.90
48535;DHT22;34323;52.022;5.686;2022-11-15T11:22:32;17.60;99.90
48535;DHT22;34323;52.022;5.686;2022-11-15T11:25:18;17.90;99.90
48535;DHT22;34323;52.022;5.686;2022-11-15T11:27:55;18.70;99.90
48535;DHT22;34323;52.022;5.686;2022-11-15T11:30:58;19.10;99.90
48535;DHT22;34323;52.022;5.686;2022-11-15T11:33:32;19.40;99.90
48535;DHT22;34323;52.022;5.686;2022-11-15T11:36:27;19.80;99.90
48535;DHT22;34323;52.022;5.686;2022-11-15T11:42:10;20.20;99.90
48535;DHT22;34323;52.022;5.686;2022-11-15T11:47:33;19.40;99.90
48535;DHT22;34323;52.022;5.686;2022-11-15T11:50:12;19.20;99.90
48535;DHT22;34323;52.022;5.686;2022-11-15T11:55:22;18.40;99.90
48535;DHT22;34323;52.022;5.686;2022-11-15T12:00:54;17.60;99.90
48535;DHT22;34323;52.022;5.686;2022-11-15T12:05:59;18.00;99.90
48535;DHT22;34323;52.022;5.686;2022-11-15T12:08:52;18.10;99.90
48535;DHT22;34323;52.022;5.686;2022-11-15T12:11:23;17.80;99.90
48535;DHT22;34323;52.022;5.686;2022-11-15T12:13:59;17.90;99.90
48535;DHT22;34323;52.022;5.686;2022-11-15T12:16:28;18.10;99.90
48535;DHT22;34323;52.022;5.686;2022-11-15T12:18:58;18.10;99.90
48535;DHT22;34323;52.022;5.686;2022-11-15T12:21:48;18.20;99.90
48535;DHT22;34323;52.022;5.686;2022-11-15T12:24:19;17.80;99.90
48535;DHT22;34323;52.022;5.686;2022-11-15T12:27:02;17.70;99.90
48535;DHT22;34323;52.022;5.686;2022-11-15T12:29:53;17.50;99.90
48535;DHT22;34323;52.022;5.686;2022-11-15T12:32:29;16.90;99.90
48535;DHT22;34323;52.022;5.686;2022-11-15T12:34:56;16.90;99.90
48535;DHT22;34323;52.022;5.686;2022-11-15T12:40:20;17.60;99.90
48535;DHT22;34323;52.022;5.686;2022-11-15T12:45:29;18.20;99.90
48535;DHT22;34323;52.022;5.686;2022-11-15T12:53:33;18.40;99.90
48535;DHT22;34323;52.022;5.686;2022-11-15T12:58:54;18.50;99.90
48535;DHT22;34323;52.022;5.686;2022-11-15T13:04:23;18.00;99.90
48535;DHT22;34323;52.022;5.686;2022-11-15T13:06:57;17.60;99.90
48535;DHT22;34323;52.022;5.686;2022-11-15T13:12:07;17.20;99.90
48535;DHT22;34323;52.022;5.686;2022-11-15T13:14:45;16.90;99.90
48535;DHT22;34323;52.022;5.686;2022-11-15T13:19:56;16.80;99.90
48535;DHT22;34323;52.022;5.686;2022-11-15T13:22:24;16.90;99.90
48535;DHT22;34323;52.022;5.686;2022-11-15T13:25:16;16.90;99.90
48535;DHT22;34323;52.022;5.686;2022-11-15T13:27:47;17.40;99.90
48535;DHT22;34323;52.022;5.686;2022-11-15T13:30:34;17.60;99.90
48535;DHT22;34323;52.022;5.686;2022-11-15T13:33:10;17.60;99.90
48535;DHT22;34323;52.022;5.686;2022-11-15T13:35:40;17.50;99.90
48535;DHT22;34323;52.022;5.686;2022-11-15T13:38:11;17.40;99.90
48535;DHT22;34323;52.022;5.686;2022-11-15T13:40:42;17.70;99.90
48535;DHT22;34323;52.022;5.686;2022-11-15T13:46:05;17.80;99.90
48535;DHT22;34323;52.022;5.686;2022-11-15T13:48:31;17.80;99.90
48535;DHT22;34323;52.022;5.686;2022-11-15T13:51:00;17.40;99.90
48535;DHT22;34323;52.022;5.686;2022-11-15T13:53:26;17.40;99.90
48535;DHT22;34323;52.022;5.686;2022-11-15T13:55:54;17.50;99.90
48535;DHT22;34323;52.022;5.686;2022-11-15T13:58:21;17.50;99.90
48535;DHT22;34323;52.022;5.686;2022-11-15T14:00:46;17.60;99.90
48535;DHT22;34323;52.022;5.686;2022-11-15T14:03:20;17.60;99.90
48535;DHT22;34323;52.022;5.686;2022-11-15T14:06:09;17.40;99.90
48535;DHT22;34323;52.022;5.686;2022-11-15T14:08:41;17.60;99.90
48535;DHT22;34323;52.022;5.686;2022-11-15T14:11:18;17.60;99.90
48535;DHT22;34323;52.022;5.686;2022-11-15T14:16:43;17.80;99.90
48535;DHT22;34323;52.022;5.686;2022-11-15T14:22:20;17.80;99.90
48535;DHT22;34323;52.022;5.686;2022-11-15T14:27:42;17.10;99.90
48535;DHT22;34323;52.022;5.686;2022-11-15T14:30:16;17.10;99.90
48535;DHT22;34323;52.022;5.686;2022-11-15T14:32:49;17.10;99.90
48535;DHT22;34323;52.022;5.686;2022-11-15T14:35:19;17.30;99.90
48535;DHT22;34323;52.022;5.686;2022-11-15T14:37:45;17.40;99.90
48535;DHT22;34323;52.022;5.686;2022-11-15T14:40:14;17.60;99.90
48535;DHT22;34323;52.022;5.686;2022-11-15T14:42:40;17.60;99.90
48535;DHT22;34323;52.022;5.686;2022-11-15T14:45:21;17.60;99.90
48535;DHT22;34323;52.022;5.686;2022-11-15T14:47:47;17.70;99.90
48535;DHT22;34323;52.022;5.686;2022-11-15T14:50:20;17.80;99.90
48535;DHT22;34323;52.022;5.686;2022-11-15T14:52:47;17.60;99.90
48535;DHT22;34323;52.022;5.686;2022-11-15T14:55:15;17.40;99.90
48535;DHT22;34323;52.022;5.686;2022-11-15T14:57:42;17.30;99.90
48535;DHT22;34323;52.022;5.686;2022-11-15T15:00:08;17.30;99.90
48535;DHT22;34323;52.022;5.686;2022-11-15T15:02:35;17.10;99.90
48535;DHT22;34323;52.022;5.686;2022-11-15T15:05:06;16.80;99.90
48535;DHT22;34323;52.022;5.686;2022-11-15T15:07:34;16.90;99.90
48535;DHT22;34323;52.022;5.686;2022-11-15T15:10:00;16.70;99.90
48535;DHT22;34323;52.022;5.686;2022-11-15T15:12:25;16.80;99.90
48535;DHT22;34323;52.022;5.686;2022-11-15T15:14:51;16.90;99.90
48535;DHT22;34323;52.022;5.686;2022-11-15T15:17:17;17.10;99.90
48535;DHT22;34323;52.022;5.686;2022-11-15T15:19:43;16.90;99.90
48535;DHT22;34323;52.022;5.686;2022-11-15T15:22:17;16.80;99.90
48535;DHT22;34323;52.022;5.686;2022-11-15T15:24:44;16.60;99.90
48535;DHT22;34323;52.022;5.686;2022-11-15T15:27:10;16.50;99.90
48535;DHT22;34323;52.022;5.686;2022-11-15T15:29:36;16.50;99.90
48535;DHT22;34323;52.022;5.686;2022-11-15T15:32:02;16.30;99.90
48535;DHT22;34323;52.022;5.686;2022-11-15T15:34:27;16.40;99.90
48535;DHT22;34323;52.022;5.686;2022-11-15T15:39:40;16.60;99.90
48535;DHT22;34323;52.022;5.686;2022-11-15T15:42:06;16.40;99.90
48535;DHT22;34323;52.022;5.686;2022-11-15T15:44:31;16.40;99.90
48535;DHT22;34323;52.022;5.686;2022-11-15T15:46:57;16.80;99.90
48535;DHT22;34323;52.022;5.686;2022-11-15T15:49:23;16.70;99.90
48535;DHT22;34323;52.022;5.686;2022-11-15T15:51:48;16.60;99.90
48535;DHT22;34323;52.022;5.686;2022-11-15T15:54:14;16.60;99.90
48535;DHT22;34323;52.022;5.686;2022-11-15T15:56:39;16.40;99.90
48535;DHT22;34323;52.022;5.686;2022-11-15T15:59:05;16.40;99.90
48535;DHT22;34323;52.022;5.686;2022-11-15T16:01:30;16.20;99.90
48535;DHT22;34323;52.022;5.686;2022-11-15T16:03:56;16.10;99.90
48535;DHT22;34323;52.022;5.686;2022-11-15T16:06:37;16.10;99.90
48535;DHT22;34323;52.022;5.686;2022-11-15T16:09:04;16.10;99.90
48535;DHT22;34323;52.022;5.686;2022-11-15T16:11:29;16.10;99.90
48535;DHT22;34323;52.022;5.686;2022-11-15T16:13:55;16.10;99.90
48535;DHT22;34323;52.022;5.686;2022-11-15T16:16:21;16.30;99.90
48535;DHT22;34323;52.022;5.686;2022-11-15T16:18:47;16.20;99.90
48535;DHT22;34323;52.022;5.686;2022-11-15T16:21:12;16.20;99.90
48535;DHT22;34323;52.022;5.686;2022-11-15T16:23:38;16.20;99.90
48535;DHT22;34323;52.022;5.686;2022-11-15T16:26:20;16.40;99.90
48535;DHT22;34323;52.022;5.686;2022-11-15T16:28:46;16.30;99.90
48535;DHT22;34323;52.022;5.686;2022-11-15T16:31:12;16.10;99.90
48535;DHT22;34323;52.022;5.686;2022-11-15T16:33:39;16.20;99.90
48535;DHT22;34323;52.022;5.686;2022-11-15T16:36:10;16.30;99.90
48535;DHT22;34323;52.022;5.686;2022-11-15T16:38:38;16.30;99.90
48535;DHT22;34323;52.022;5.686;2022-11-15T16:41:04;16.30;99.90
48535;DHT22;34323;52.022;5.686;2022-11-15T16:43:29;16.40;99.90
48535;DHT22;34323;52.022;5.686;2022-11-15T16:45:55;16.40;99.90
48535;DHT22;34323;52.022;5.686;2022-11-15T16:48:27;16.40;99.90
48535;DHT22;34323;52.022;5.686;2022-11-15T16:50:57;16.40;99.90
48535;DHT22;34323;52.022;5.686;2022-11-15T16:53:24;16.20;99.90
48535;DHT22;34323;52.022;5.686;2022-11-15T16:55:50;16.40;99.90
48535;DHT22;34323;52.022;5.686;2022-11-15T16:58:16;16.00;99.90
48535;DHT22;34323;52.022;5.686;2022-11-15T17:00:41;16.10;99.90
48535;DHT22;34323;52.022;5.686;2022-11-15T17:03:07;16.20;99.90
48535;DHT22;34323;52.022;5.686;2022-11-15T17:05:33;16.30;99.90
48535;DHT22;34323;52.022;5.686;2022-11-15T17:07:58;16.40;99.90
48535;DHT22;34323;52.022;5.686;2022-11-15T17:10:25;16.40;99.90
48535;DHT22;34323;52.022;5.686;2022-11-15T17:12:51;16.40;99.90
48535;DHT22;34323;52.022;5.686;2022-11-15T17:15:19;16.60;99.90
48535;DHT22;34323;52.022;5.686;2022-11-15T17:17:53;16.50;99.90
48535;DHT22;34323;52.022;5.686;2022-11-15T17:20:22;16.40;99.90
48535;DHT22;34323;52.022;5.686;2022-11-15T17:22:48;16.60;99.90
48535;DHT22;34323;52.022;5.686;2022-11-15T17:25:14;16.60;99.90
48535;DHT22;34323;52.022;5.686;2022-11-15T17:27:39;16.80;99.90
48535;DHT22;34323;52.022;5.686;2022-11-15T17:30:06;16.80;99.90
48535;DHT22;34323;52.022;5.686;2022-11-15T17:32:34;16.70;99.90